Time;durP1;ratioP1;P1;durP2;ratioP2;P2;SDS_P1;SDS_P2;PMS_P1;PMS_P2;Temp;Humidity;BMP_temperature;BMP_pressure;BME280_temperature;BME280_humidity;BME280_pressure;Samples;Min_cycle;Max_cycle;Signal;HPM_P1;HPM_P2
2023/05/27 00:01:19;;;;;;;11.93;3.35;;;17.50;46.10;;;;;;5078409;28;20024;-64
2023/05/27 00:03:46;;;;;;;8.25;2.70;;;17.40;45.80;;;;;;5073242;28;20190;-65
2023/05/27 00:06:12;;;;;;;15.27;3.08;;;17.40;45.90;;;;;;5075001;28;20043;-66
2023/05/27 00:08:37;;;;;;;13.98;3.38;;;17.40;46.00;;;;;;5074263;28;20033;-65
2023/05/27 00:11:04;;;;;;;8.52;2.80;;;17.30;46.20;;;;;;5071601;28;20045;-66
2023/05/27 00:13:30;;;;;;;10.32;3.22;;;17.30;46.10;;;;;;5070040;28;20032;-65
2023/05/27 00:15:56;;;;;;;18.63;3.40;;;17.20;46.10;;;;;;5077030;28;20029;-66
2023/05/27 00:18:21;;;;;;;9.38;3.22;;;17.30;46.30;;;;;;5077077;28;20052;-66
2023/05/27 00:20:48;;;;;;;11.13;3.92;;;17.20;46.40;;;;;;5076923;28;20036;-65
2023/05/27 00:23:14;;;;;;;10.27;3.35;;;17.10;46.40;;;;;;5078374;28;20047;-65
2023/05/27 00:25:40;;;;;;;11.60;3.28;;;17.10;46.50;;;;;;5071750;28;20812;-66
2023/05/27 00:28:05;;;;;;;13.48;3.53;;;17.10;46.50;;;;;;5077967;28;20050;-64
2023/05/27 00:30:31;;;;;;;9.57;2.90;;;17.00;46.60;;;;;;5081683;28;20025;-65
2023/05/27 00:32:57;;;;;;;10.93;3.45;;;17.00;46.70;;;;;;5084921;28;20020;-67
2023/05/27 00:35:23;;;;;;;9.88;3.38;;;16.90;46.80;;;;;;5069777;28;20063;-65
2023/05/27 00:37:49;;;;;;;12.13;4.03;;;16.90;46.90;;;;;;5078242;28;20027;-64
2023/05/27 00:40:20;;;;;;;8.48;3.08;;;16.90;47.10;;;;;;5071735;28;20020;-66
2023/05/27 00:42:45;;;;;;;12.05;3.47;;;16.90;47.20;;;;;;5077094;28;20387;-65
2023/05/27 00:45:13;;;;;;;12.95;3.50;;;16.80;47.00;;;;;;5077371;28;20036;-65
2023/05/27 00:47:40;;;;;;;12.50;3.40;;;16.80;47.70;;;;;;5077363;28;20135;-63
2023/05/27 00:50:07;;;;;;;13.15;3.55;;;16.80;47.20;;;;;;5074315;28;20057;-66
2023/05/27 00:52:33;;;;;;;12.63;3.78;;;16.80;47.40;;;;;;5070834;28;20037;-65
2023/05/27 00:54:59;;;;;;;11.38;3.15;;;16.70;47.40;;;;;;5078628;28;20016;-65
2023/05/27 00:57:25;;;;;;;9.20;3.63;;;16.70;47.50;;;;;;5078193;28;20027;-65
2023/05/27 00:59:52;;;;;;;10.23;3.33;;;16.70;47.50;;;;;;5070140;28;20033;-65
2023/05/27 01:02:18;;;;;;;13.63;3.45;;;16.70;47.70;;;;;;5078081;28;20080;-65
2023/05/27 01:04:46;;;;;;;10.35;3.78;;;16.60;47.70;;;;;;5078446;28;20055;-65
2023/05/27 01:07:28;;;;;;;10.80;3.22;;;16.60;47.80;;;;;;5075512;28;20020;-65
2023/05/27 01:10:15;;;;;;;9.60;3.35;;;16.60;48.10;;;;;;5074703;28;20021;-66
2023/05/27 01:13:01;;;;;;;9.40;3.20;;;16.60;48.30;;;;;;5080246;28;20191;-66
2023/05/27 01:15:30;;;;;;;12.95;3.42;;;16.50;48.20;;;;;;5090716;28;20017;-65
2023/05/27 01:17:56;;;;;;;9.30;3.28;;;16.50;47.80;;;;;;5087022;28;20020;-64
2023/05/27 01:20:23;;;;;;;10.48;3.53;;;16.50;47.90;;;;;;5087292;28;20024;-64
2023/05/27 01:22:52;;;;;;;11.20;3.28;;;16.50;47.80;;;;;;5082622;28;20048;-65
2023/05/27 01:25:19;;;;;;;12.18;3.78;;;16.40;48.00;;;;;;5082555;28;20737;-66
2023/05/27 01:27:45;;;;;;;12.48;3.00;;;16.40;47.90;;;;;;5077313;28;20024;-65
2023/05/27 01:30:12;;;;;;;8.77;2.92;;;16.40;47.90;;;;;;5078459;28;20020;-65
2023/05/27 01:32:46;;;;;;;13.25;3.53;;;16.40;48.00;;;;;;5075660;28;20099;-64
2023/05/27 01:35:29;;;;;;;15.25;3.25;;;16.40;48.00;;;;;;5076862;28;20029;-66
2023/05/27 01:37:58;;;;;;;8.93;3.10;;;16.40;48.30;;;;;;5073311;28;20031;-65
2023/05/27 01:40:24;;;;;;;14.40;4.07;;;16.40;47.90;;;;;;5080124;28;20095;-65
2023/05/27 01:42:50;;;;;;;12.00;3.35;;;16.30;47.90;;;;;;5077866;28;20053;-65
2023/05/27 01:45:16;;;;;;;14.90;3.50;;;16.30;47.90;;;;;;5080508;28;20395;-65
2023/05/27 01:47:45;;;;;;;13.48;3.40;;;16.30;47.80;;;;;;5073611;28;20028;-66
2023/05/27 01:50:10;;;;;;;11.95;3.70;;;16.30;47.90;;;;;;5082239;28;20060;-65
2023/05/27 01:52:36;;;;;;;11.05;3.25;;;16.30;47.90;;;;;;5076961;28;20024;-65
2023/05/27 01:55:04;;;;;;;12.43;3.50;;;16.30;48.30;;;;;;5080886;28;20093;-65
2023/05/27 01:57:30;;;;;;;11.77;3.35;;;16.30;48.40;;;;;;5074877;28;20020;-65
2023/05/27 01:59:56;;;;;;;15.00;3.95;;;16.20;48.50;;;;;;5081999;28;20024;-65
2023/05/27 02:02:22;;;;;;;13.70;3.55;;;16.20;48.50;;;;;;5075400;28;20044;-65
2023/05/27 02:04:47;;;;;;;16.63;3.78;;;16.20;48.50;;;;;;5074638;28;20037;-65
2023/05/27 02:07:13;;;;;;;12.82;3.70;;;16.10;48.80;;;;;;5072976;28;20032;-65
2023/05/27 02:09:38;;;;;;;10.52;3.17;;;16.10;48.90;;;;;;5082245;28;20032;-64
2023/05/27 02:12:06;;;;;;;10.77;3.30;;;16.00;48.70;;;;;;5080530;28;20122;-65
2023/05/27 02:14:32;;;;;;;10.82;3.15;;;16.00;48.80;;;;;;5077880;28;20080;-65
2023/05/27 02:16:58;;;;;;;10.13;3.03;;;15.90;48.90;;;;;;5070011;28;20044;-67
2023/05/27 02:19:24;;;;;;;9.90;2.85;;;15.90;48.90;;;;;;5080499;28;20020;-65
2023/05/27 02:21:50;;;;;;;10.93;3.30;;;15.90;49.10;;;;;;5075535;28;20047;-65
2023/05/27 02:24:16;;;;;;;12.10;3.90;;;15.80;49.20;;;;;;5070156;28;20562;-63
2023/05/27 02:26:41;;;;;;;13.60;3.40;;;15.80;49.50;;;;;;5078861;28;20055;-65
2023/05/27 02:29:07;;;;;;;10.52;3.47;;;15.80;49.70;;;;;;5079678;28;20174;-64
2023/05/27 02:31:32;;;;;;;8.82;3.10;;;15.80;49.90;;;;;;5080269;28;20029;-66
2023/05/27 02:33:58;;;;;;;14.65;3.95;;;15.70;49.80;;;;;;5080087;28;20025;-65
2023/05/27 02:36:25;;;;;;;10.77;3.67;;;15.60;49.90;;;;;;5080763;28;20081;-64
2023/05/27 02:38:50;;;;;;;9.32;3.35;;;15.50;50.00;;;;;;5075498;28;20016;-65
2023/05/27 02:41:16;;;;;;;11.48;3.08;;;15.50;50.10;;;;;;5078569;28;20031;-66
2023/05/27 02:43:42;;;;;;;15.57;3.55;;;15.40;50.30;;;;;;5075980;28;20348;-65
2023/05/27 02:46:07;;;;;;;10.80;3.42;;;15.40;50.30;;;;;;5079159;28;20033;-65
2023/05/27 02:48:33;;;;;;;10.52;3.53;;;15.40;50.50;;;;;;5080064;28;20051;-66
2023/05/27 02:50:59;;;;;;;8.43;2.97;;;15.30;50.70;;;;;;5080106;28;20019;-65
2023/05/27 02:53:24;;;;;;;11.10;3.42;;;15.20;50.80;;;;;;5077659;28;20123;-64
2023/05/27 02:55:50;;;;;;;11.60;3.42;;;15.20;51.00;;;;;;5076268;28;20058;-66
2023/05/27 02:58:16;;;;;;;10.00;3.22;;;15.10;51.20;;;;;;5081193;28;20021;-65
2023/05/27 03:00:42;;;;;;;9.52;3.40;;;15.10;51.20;;;;;;5077024;28;20446;-65
2023/05/27 03:03:08;;;;;;;15.38;3.83;;;15.00;51.20;;;;;;5076177;28;20020;-65
2023/05/27 03:05:38;;;;;;;11.77;3.75;;;14.90;51.30;;;;;;5076824;28;20059;-66
2023/05/27 03:08:05;;;;;;;11.38;3.60;;;14.90;51.70;;;;;;5078639;28;20032;-66
2023/05/27 03:10:32;;;;;;;13.23;3.78;;;14.90;51.80;;;;;;5090936;28;20009;-65
2023/05/27 03:12:57;;;;;;;9.82;3.40;;;14.80;51.80;;;;;;5082530;28;20483;-66
2023/05/27 03:15:23;;;;;;;9.52;3.13;;;14.80;51.80;;;;;;5078998;28;20024;-65
2023/05/27 03:17:49;;;;;;;10.32;3.05;;;14.70;51.90;;;;;;5077397;28;20100;-65
2023/05/27 03:20:16;;;;;;;10.57;3.83;;;14.70;52.10;;;;;;5072360;28;20025;-65
2023/05/27 03:22:42;;;;;;;9.98;3.05;;;14.70;52.20;;;;;;5074659;28;21166;-65
2023/05/27 03:25:08;;;;;;;11.32;3.15;;;14.60;52.20;;;;;;5073518;28;20036;-65
2023/05/27 03:27:35;;;;;;;9.52;3.25;;;14.60;52.30;;;;;;5077507;28;20027;-64
2023/05/27 03:30:01;;;;;;;11.15;2.92;;;14.60;52.40;;;;;;5079636;28;20017;-67
2023/05/27 03:32:26;;;;;;;19.38;4.22;;;14.60;52.60;;;;;;5077555;28;20052;-63
2023/05/27 03:34:52;;;;;;;12.48;3.58;;;14.50;52.80;;;;;;5075791;28;20017;-65
2023/05/27 03:37:18;;;;;;;9.20;3.38;;;14.50;52.90;;;;;;5078113;28;20031;-64
2023/05/27 03:39:43;;;;;;;12.65;3.55;;;14.50;52.90;;;;;;4993015;28;20590;-65
2023/05/27 03:42:09;;;;;;;11.00;3.85;;;14.50;53.00;;;;;;5079876;28;20463;-65
2023/05/27 03:44:35;;;;;;;13.55;3.47;;;14.50;53.00;;;;;;5077314;28;20029;-65
2023/05/27 03:47:05;;;;;;;8.52;3.38;;;14.40;53.10;;;;;;5080580;28;20031;-65
2023/05/27 03:49:30;;;;;;;6.20;3.22;;;14.40;53.60;;;;;;5077993;28;20040;-65
2023/05/27 03:51:56;;;;;;;10.15;3.85;;;14.40;53.40;;;;;;5074015;28;20024;-65
2023/05/27 03:54:22;;;;;;;12.95;3.97;;;14.40;53.50;;;;;;5082019;28;20032;-66
2023/05/27 03:56:47;;;;;;;8.60;3.22;;;14.40;53.60;;;;;;5071392;28;20032;-65
2023/05/27 03:59:14;;;;;;;9.10;3.40;;;14.30;54.20;;;;;;5070954;28;20017;-66
2023/05/27 04:01:40;;;;;;;9.18;3.30;;;14.30;53.80;;;;;;5080309;28;20020;-64
2023/05/27 04:04:06;;;;;;;12.25;3.30;;;14.30;53.90;;;;;;5083992;28;20040;-65
2023/05/27 04:06:33;;;;;;;8.52;2.90;;;14.30;53.90;;;;;;5080544;28;20043;-64
2023/05/27 04:08:58;;;;;;;12.38;3.70;;;14.30;53.90;;;;;;5080511;28;20009;-64
2023/05/27 04:11:27;;;;;;;9.18;3.25;;;14.30;53.80;;;;;;5073558;28;20059;-64
2023/05/27 04:13:53;;;;;;;11.85;3.63;;;14.30;54.00;;;;;;5075091;28;20028;-65
2023/05/27 04:16:18;;;;;;;10.95;3.40;;;14.30;54.00;;;;;;5080315;28;20020;-65
2023/05/27 04:18:51;;;;;;;11.25;3.75;;;14.40;54.00;;;;;;5075024;28;20029;-67
2023/05/27 04:21:17;;;;;;;11.27;3.88;;;14.40;54.10;;;;;;5076322;28;20363;-66
2023/05/27 04:23:42;;;;;;;15.05;3.95;;;14.40;54.10;;;;;;5075576;28;20109;-65
2023/05/27 04:26:08;;;;;;;11.30;3.15;;;14.40;54.10;;;;;;5071249;28;20033;-66
2023/05/27 04:28:35;;;;;;;11.80;3.92;;;14.50;54.20;;;;;;5076656;28;20025;-65
2023/05/27 04:31:00;;;;;;;10.90;2.95;;;14.50;54.20;;;;;;5079670;28;20444;-65
2023/05/27 04:33:26;;;;;;;17.88;3.90;;;14.60;54.20;;;;;;5076871;28;20080;-64
2023/05/27 04:35:53;;;;;;;12.20;3.10;;;14.60;54.40;;;;;;5077983;28;20502;-65
2023/05/27 04:38:20;;;;;;;6.78;2.90;;;14.60;54.40;;;;;;5071286;28;20021;-65
2023/05/27 04:40:52;;;;;;;7.53;2.78;;;14.70;54.40;;;;;;5077812;28;20032;-66
2023/05/27 04:43:21;;;;;;;11.00;3.25;;;14.70;54.20;;;;;;5076005;28;20051;-66
2023/05/27 04:45:47;;;;;;;12.80;3.47;;;14.80;54.20;;;;;;5076533;28;20086;-66
2023/05/27 04:48:14;;;;;;;16.65;3.45;;;14.90;54.40;;;;;;5074496;28;20029;-64
2023/05/27 04:50:40;;;;;;;10.02;3.53;;;15.00;54.50;;;;;;5078463;28;20029;-64
2023/05/27 04:53:06;;;;;;;10.13;3.40;;;15.00;54.50;;;;;;5073057;28;20020;-66
2023/05/27 04:55:32;;;;;;;9.27;3.17;;;15.10;54.40;;;;;;5068394;28;20039;-65
2023/05/27 04:57:58;;;;;;;12.40;3.75;;;15.10;54.00;;;;;;5075467;28;20016;-65
2023/05/27 05:01:16;;;;;;;8.68;3.15;;;15.30;54.10;;;;;;5071274;28;20567;-65
2023/05/27 05:03:20;;;;;;;7.30;2.92;;;15.30;53.70;;;;;;5059618;28;20041;-65
2023/05/27 05:05:47;;;;;;;12.13;3.55;;;15.50;53.40;;;;;;5074934;28;20071;-65
2023/05/27 05:08:12;;;;;;;12.07;3.38;;;15.50;53.30;;;;;;5078737;28;20076;-66
2023/05/27 05:10:38;;;;;;;8.98;2.72;;;15.60;53.00;;;;;;5072141;28;20043;-65
2023/05/27 05:13:04;;;;;;;13.07;3.40;;;15.70;52.80;;;;;;5069591;28;20038;-64
2023/05/27 05:15:31;;;;;;;10.75;3.28;;;15.80;52.70;;;;;;5079629;28;20067;-64
2023/05/27 05:17:56;;;;;;;9.73;3.60;;;15.90;52.60;;;;;;5072886;28;20078;-66
2023/05/27 05:20:22;;;;;;;15.57;4.28;;;16.00;52.40;;;;;;5076668;28;20017;-66
2023/05/27 05:22:48;;;;;;;12.88;3.70;;;16.10;52.40;;;;;;5073886;28;20051;-66
2023/05/27 05:25:14;;;;;;;15.13;3.95;;;16.20;52.20;;;;;;5078202;28;20115;-65
2023/05/27 05:27:41;;;;;;;15.88;3.60;;;16.40;52.20;;;;;;5077869;28;20471;-65
2023/05/27 05:30:07;;;;;;;18.15;4.18;;;16.50;52.00;;;;;;5093924;28;20047;-67
2023/05/27 05:32:33;;;;;;;12.18;3.63;;;16.60;51.80;;;;;;5078011;28;20055;-66
2023/05/27 05:34:59;;;;;;;13.82;3.65;;;16.70;51.40;;;;;;5075206;28;20037;-66
2023/05/27 05:37:24;;;;;;;13.40;3.55;;;16.80;51.20;;;;;;5075435;28;20020;-66
2023/05/27 05:39:53;;;;;;;13.40;3.60;;;16.90;51.10;;;;;;5020226;28;20025;-65
2023/05/27 05:42:19;;;;;;;11.30;3.38;;;17.00;50.70;;;;;;5075312;28;20024;-65
2023/05/27 05:44:44;;;;;;;11.23;3.47;;;17.10;50.60;;;;;;5077244;28;20028;-66
2023/05/27 05:47:10;;;;;;;10.48;3.53;;;17.20;50.60;;;;;;5080971;28;20031;-66
2023/05/27 05:49:36;;;;;;;14.52;3.45;;;17.30;50.50;;;;;;5087463;28;20036;-66
2023/05/27 05:52:01;;;;;;;14.50;3.28;;;17.30;50.20;;;;;;5079204;28;20086;-66
2023/05/27 05:54:27;;;;;;;12.52;4.05;;;17.50;50.30;;;;;;5077691;28;20036;-65
2023/05/27 05:56:53;;;;;;;9.90;3.47;;;17.50;50.00;;;;;;5077226;28;20032;-66
2023/05/27 05:59:18;;;;;;;9.75;3.42;;;17.60;49.80;;;;;;5074759;28;20086;-66
2023/05/27 06:01:44;;;;;;;10.57;3.17;;;17.70;49.70;;;;;;5072619;28;20032;-66
2023/05/27 06:04:10;;;;;;;9.80;3.30;;;17.80;49.70;;;;;;5081875;28;20025;-67
2023/05/27 06:06:35;;;;;;;11.45;3.65;;;18.00;49.70;;;;;;5081643;28;20044;-66
2023/05/27 06:09:01;;;;;;;10.27;3.13;;;18.10;49.30;;;;;;5077853;28;20076;-66
2023/05/27 06:11:26;;;;;;;9.60;3.25;;;18.20;49.20;;;;;;5076450;28;20081;-65
2023/05/27 06:13:52;;;;;;;10.27;3.00;;;18.30;49.20;;;;;;5075745;28;20229;-66
2023/05/27 06:16:18;;;;;;;8.20;3.15;;;18.50;49.20;;;;;;5081209;28;20021;-66
2023/05/27 06:18:45;;;;;;;7.40;2.75;;;18.60;48.70;;;;;;5077945;28;20523;-66
2023/05/27 06:21:12;;;;;;;13.52;3.80;;;18.70;48.40;;;;;;5074416;28;20021;-66
2023/05/27 06:23:37;;;;;;;9.02;3.33;;;18.90;48.30;;;;;;5079428;28;20041;-66
2023/05/27 06:26:03;;;;;;;18.20;3.78;;;18.90;48.20;;;;;;5074923;28;20044;-67
2023/05/27 06:28:30;;;;;;;8.70;3.00;;;19.10;48.10;;;;;;5079241;28;20044;-67
2023/05/27 06:30:55;;;;;;;12.32;3.30;;;19.20;47.90;;;;;;5075652;28;20024;-67
2023/05/27 06:33:21;;;;;;;12.35;3.60;;;19.30;47.60;;;;;;5076138;28;20032;-66
2023/05/27 06:35:47;;;;;;;10.35;3.67;;;19.40;47.30;;;;;;5077677;28;20119;-65
2023/05/27 06:38:13;;;;;;;7.82;3.00;;;19.40;47.20;;;;;;5071096;28;20028;-68
2023/05/27 06:40:38;;;;;;;12.10;4.00;;;19.60;47.20;;;;;;5074256;28;20024;-66
2023/05/27 06:43:04;;;;;;;12.70;3.47;;;19.70;47.00;;;;;;5072319;28;20455;-67
2023/05/27 06:45:30;;;;;;;14.35;4.25;;;19.80;47.20;;;;;;5077137;28;20040;-66
2023/05/27 06:47:56;;;;;;;9.82;2.97;;;19.90;46.40;;;;;;5077961;28;20024;-67
2023/05/27 06:50:22;;;;;;;13.45;3.63;;;19.90;46.70;;;;;;5071778;28;20039;-67
2023/05/27 06:52:47;;;;;;;14.30;3.58;;;20.00;46.60;;;;;;5077057;28;20028;-67
2023/05/27 06:55:13;;;;;;;10.40;3.80;;;20.10;46.70;;;;;;5075332;28;20025;-65
2023/05/27 06:57:39;;;;;;;7.88;3.38;;;20.20;46.60;;;;;;5078060;28;20024;-66
2023/05/27 07:00:06;;;;;;;7.43;3.22;;;20.30;46.20;;;;;;5073284;28;20035;-67
2023/05/27 07:02:31;;;;;;;12.60;3.47;;;20.30;46.00;;;;;;5080753;28;20255;-68
2023/05/27 07:04:57;;;;;;;10.48;3.10;;;20.40;46.10;;;;;;5074560;28;20347;-66
2023/05/27 07:07:23;;;;;;;10.38;3.40;;;20.40;46.10;;;;;;5076756;28;20024;-66
2023/05/27 07:09:48;;;;;;;8.90;3.63;;;20.50;46.20;;;;;;5070359;28;20410;-67
2023/05/27 07:12:14;;;;;;;8.05;2.95;;;20.60;46.40;;;;;;5072555;28;20065;-65
2023/05/27 07:14:40;;;;;;;8.18;3.40;;;20.70;46.50;;;;;;5069315;28;20052;-67
2023/05/27 07:17:06;;;;;;;9.48;4.00;;;20.70;46.30;;;;;;5079348;28;20029;-66
2023/05/27 07:19:31;;;;;;;13.48;3.90;;;20.80;45.70;;;;;;5086489;28;20032;-67
2023/05/27 07:21:57;;;;;;;9.15;3.30;;;20.90;45.40;;;;;;5078820;28;20081;-66
2023/05/27 07:24:23;;;;;;;12.85;3.72;;;21.00;45.30;;;;;;5074064;28;20124;-67
2023/05/27 07:26:48;;;;;;;17.02;4.15;;;21.10;45.30;;;;;;5071260;28;20036;-67
2023/05/27 07:29:14;;;;;;;10.88;2.92;;;21.20;45.40;;;;;;5075504;28;20025;-67
2023/05/27 07:31:40;;;;;;;9.93;3.47;;;21.20;45.30;;;;;;5078147;28;20032;-66
2023/05/27 07:34:05;;;;;;;10.70;3.55;;;21.30;45.20;;;;;;5072694;28;20029;-66
2023/05/27 07:36:31;;;;;;;11.77;3.60;;;21.40;44.90;;;;;;5074692;28;20029;-64
2023/05/27 07:38:57;;;;;;;11.60;3.58;;;21.50;44.90;;;;;;5079149;28;20025;-66
2023/05/27 07:41:23;;;;;;;8.75;3.33;;;21.50;44.60;;;;;;5075664;28;20028;-66
2023/05/27 07:43:49;;;;;;;9.88;3.92;;;21.60;44.80;;;;;;5073002;28;20052;-66
2023/05/27 07:46:14;;;;;;;12.13;3.38;;;21.80;44.70;;;;;;5071720;28;20466;-67
2023/05/27 07:48:40;;;;;;;10.07;3.67;;;21.80;44.40;;;;;;5075916;28;20028;-65
2023/05/27 07:51:06;;;;;;;10.57;3.65;;;21.90;44.30;;;;;;5072041;28;20036;-67
2023/05/27 07:53:31;;;;;;;15.82;4.50;;;22.00;43.80;;;;;;5076628;28;20107;-67
2023/05/27 07:55:57;;;;;;;9.27;3.40;;;22.00;44.00;;;;;;5074582;28;20024;-66
2023/05/27 07:58:23;;;;;;;7.35;3.13;;;22.10;44.00;;;;;;5072197;28;20021;-67
2023/05/27 08:00:48;;;;;;;10.93;4.25;;;22.20;44.00;;;;;;5067310;28;20076;-66
2023/05/27 08:03:14;;;;;;;10.70;3.30;;;22.20;43.80;;;;;;5073651;28;20016;-66
2023/05/27 08:05:40;;;;;;;12.52;3.45;;;22.20;43.30;;;;;;5075082;28;20040;-67
2023/05/27 08:08:05;;;;;;;10.57;3.65;;;22.30;43.40;;;;;;5076206;28;20035;-66
2023/05/27 08:10:31;;;;;;;10.68;3.55;;;22.30;43.50;;;;;;5077165;28;20282;-66
2023/05/27 08:12:57;;;;;;;10.32;3.78;;;22.40;43.80;;;;;;5074454;28;20115;-67
2023/05/27 08:15:22;;;;;;;11.60;3.63;;;22.40;43.60;;;;;;5076815;28;20025;-65
2023/05/27 08:17:48;;;;;;;10.95;4.07;;;22.50;44.00;;;;;;5073347;28;20024;-65
2023/05/27 08:20:14;;;;;;;10.55;3.70;;;22.60;43.00;;;;;;5062831;28;20082;-66
2023/05/27 08:22:41;;;;;;;12.85;3.80;;;22.70;43.30;;;;;;5073916;28;20189;-67
2023/05/27 08:25:07;;;;;;;11.48;3.38;;;22.80;43.10;;;;;;5074373;28;20048;-65
2023/05/27 08:27:50;;;;;;;15.88;4.03;;;22.80;42.80;;;;;;5075665;28;20032;-66
2023/05/27 08:30:16;;;;;;;8.85;3.10;;;22.90;42.70;;;;;;5079621;28;20027;-66
2023/05/27 08:32:42;;;;;;;18.55;3.38;;;23.00;42.80;;;;;;5071475;28;20032;-67
2023/05/27 08:35:08;;;;;;;11.18;3.50;;;23.00;42.80;;;;;;5074581;28;20037;-68
2023/05/27 08:37:34;;;;;;;7.75;3.42;;;23.00;42.70;;;;;;5071830;28;20016;-68
2023/05/27 08:40:00;;;;;;;12.48;3.78;;;23.10;42.60;;;;;;4992669;28;20633;-66
2023/05/27 08:42:26;;;;;;;9.00;3.55;;;23.10;42.20;;;;;;5077632;28;20081;-67
2023/05/27 08:44:52;;;;;;;12.15;3.47;;;23.20;42.30;;;;;;5070590;28;20040;-66
2023/05/27 08:47:18;;;;;;;11.00;3.33;;;23.20;41.70;;;;;;5070618;28;20029;-68
2023/05/27 08:49:45;;;;;;;10.77;3.50;;;23.30;42.10;;;;;;5082363;28;20044;-66
2023/05/27 08:52:11;;;;;;;12.85;3.65;;;23.30;41.70;;;;;;5081273;28;20107;-66
2023/05/27 08:54:37;;;;;;;11.85;3.95;;;23.30;41.50;;;;;;5080468;28;20082;-68
2023/05/27 08:57:09;;;;;;;11.65;4.68;;;23.40;41.60;;;;;;5076995;28;20036;-67
2023/05/27 08:59:36;;;;;;;10.07;3.58;;;23.40;40.40;;;;;;5071136;28;20104;-68
2023/05/27 09:02:04;;;;;;;8.68;3.38;;;23.40;41.00;;;;;;5070191;28;20021;-67
2023/05/27 09:04:30;;;;;;;12.02;3.58;;;23.40;41.20;;;;;;5076629;28;20032;-67
2023/05/27 09:06:56;;;;;;;8.77;3.75;;;23.40;41.50;;;;;;5076584;28;20086;-68
2023/05/27 09:09:21;;;;;;;9.05;3.15;;;23.50;41.30;;;;;;5071644;28;20036;-65
2023/05/27 09:11:47;;;;;;;8.13;3.28;;;23.50;41.40;;;;;;5079261;28;20024;-66
2023/05/27 09:14:22;;;;;;;13.60;3.88;;;23.60;41.30;;;;;;5072815;28;20044;-66
2023/05/27 09:16:47;;;;;;;9.52;3.17;;;23.70;41.70;;;;;;5070494;28;20056;-66
2023/05/27 09:19:18;;;;;;;12.88;3.47;;;23.80;41.80;;;;;;5072986;28;20032;-67
2023/05/27 09:21:44;;;;;;;8.82;3.40;;;23.80;40.80;;;;;;5077544;28;20029;-67
2023/05/27 09:24:10;;;;;;;11.30;3.83;;;23.90;40.80;;;;;;5076590;28;20360;-66
2023/05/27 09:26:37;;;;;;;12.27;3.50;;;24.00;41.40;;;;;;5075366;28;20095;-67
2023/05/27 09:29:07;;;;;;;9.05;3.40;;;24.10;40.70;;;;;;5074004;28;20017;-65
2023/05/27 09:31:39;;;;;;;10.68;3.80;;;24.20;40.70;;;;;;5073325;28;20043;-66
2023/05/27 09:34:14;;;;;;;9.15;4.22;;;24.30;40.90;;;;;;5072225;28;20013;-67
2023/05/27 09:36:48;;;;;;;10.57;3.80;;;24.40;40.30;;;;;;5081029;28;20036;-67
2023/05/27 09:39:14;;;;;;;10.95;3.47;;;24.50;40.80;;;;;;5079902;28;20020;-67
2023/05/27 09:41:40;;;;;;;12.68;3.58;;;24.60;40.10;;;;;;5080602;28;20035;-68
2023/05/27 09:44:07;;;;;;;15.00;4.03;;;24.70;40.00;;;;;;5084168;28;20048;-67
2023/05/27 09:46:33;;;;;;;8.85;3.67;;;24.70;40.00;;;;;;5080847;28;20088;-68
2023/05/27 09:49:00;;;;;;;11.55;3.95;;;24.70;39.40;;;;;;5082287;28;20029;-67
2023/05/27 09:51:29;;;;;;;8.43;3.05;;;24.80;39.70;;;;;;5077646;28;20025;-65
2023/05/27 09:53:58;;;;;;;10.10;3.20;;;24.80;40.00;;;;;;5075348;28;20032;-66
2023/05/27 09:56:26;;;;;;;15.75;4.35;;;24.90;39.80;;;;;;5075184;28;20032;-67
2023/05/27 09:58:55;;;;;;;9.27;4.07;;;25.00;40.00;;;;;;5079604;28;20021;-67
2023/05/27 10:01:25;;;;;;;12.25;3.70;;;25.00;39.70;;;;;;5078365;28;20016;-65
2023/05/27 10:03:52;;;;;;;10.32;3.55;;;25.10;39.80;;;;;;5082436;28;20032;-67
2023/05/27 10:06:18;;;;;;;11.77;3.63;;;25.20;39.50;;;;;;5078012;28;20036;-67
2023/05/27 10:08:44;;;;;;;7.38;3.08;;;25.30;39.20;;;;;;5082327;28;20459;-66
2023/05/27 10:11:13;;;;;;;8.32;3.47;;;25.40;38.90;;;;;;5080511;28;20029;-67
2023/05/27 10:13:40;;;;;;;10.00;3.60;;;25.40;38.50;;;;;;5082743;28;20025;-66
2023/05/27 10:16:06;;;;;;;14.93;3.78;;;25.50;39.20;;;;;;5079331;28;20824;-66
2023/05/27 10:18:33;;;;;;;10.55;3.50;;;25.60;37.70;;;;;;5083194;28;20033;-66
2023/05/27 10:21:03;;;;;;;8.68;3.47;;;25.60;38.50;;;;;;5076613;28;20017;-66
2023/05/27 10:23:33;;;;;;;39.78;7.57;;;25.70;38.60;;;;;;5077747;28;20049;-67
2023/05/27 10:26:06;;;;;;;11.23;3.78;;;25.80;37.30;;;;;;5077259;28;20391;-67
2023/05/27 10:28:39;;;;;;;15.63;3.88;;;25.80;37.20;;;;;;5077116;28;20093;-66
2023/05/27 10:31:06;;;;;;;14.77;3.60;;;25.90;36.60;;;;;;5078830;28;20025;-67
2023/05/27 10:33:35;;;;;;;10.15;3.30;;;25.90;36.30;;;;;;5081953;28;20394;-67
2023/05/27 10:36:15;;;;;;;11.02;3.28;;;26.00;35.60;;;;;;5080853;28;20028;-66
2023/05/27 10:38:42;;;;;;;11.43;3.85;;;26.00;36.80;;;;;;5069595;28;20025;-67
2023/05/27 10:41:08;;;;;;;9.05;3.70;;;26.00;37.00;;;;;;5022380;28;20083;-67
2023/05/27 10:43:35;;;;;;;12.43;3.38;;;26.10;36.80;;;;;;5074538;28;20032;-66
2023/05/27 10:46:04;;;;;;;9.60;3.75;;;26.10;37.40;;;;;;5075611;28;20258;-66
2023/05/27 10:48:31;;;;;;;7.93;3.25;;;26.20;36.40;;;;;;5082318;28;20035;-67
2023/05/27 10:50:58;;;;;;;7.13;3.08;;;26.30;36.80;;;;;;5079622;28;20150;-65
2023/05/27 10:53:26;;;;;;;8.52;3.72;;;26.30;36.80;;;;;;5076862;28;20039;-67
2023/05/27 10:55:52;;;;;;;12.48;4.20;;;26.40;36.10;;;;;;5077720;28;20029;-67
2023/05/27 10:58:19;;;;;;;9.52;4.22;;;26.40;36.20;;;;;;5076877;28;20056;-66
2023/05/27 11:00:52;;;;;;;8.43;3.70;;;26.40;36.80;;;;;;5075825;28;20032;-67
2023/05/27 11:03:22;;;;;;;10.45;3.50;;;26.50;36.10;;;;;;5082693;28;20122;-67
2023/05/27 11:06:04;;;;;;;11.20;3.97;;;26.60;36.10;;;;;;5075762;28;20113;-66
2023/05/27 11:08:32;;;;;;;7.97;3.60;;;26.60;35.70;;;;;;5079276;28;20081;-66
2023/05/27 11:10:59;;;;;;;14.38;4.40;;;26.70;36.50;;;;;;5075938;28;20313;-67
2023/05/27 11:13:39;;;;;;;8.30;3.22;;;26.80;34.80;;;;;;5076510;28;20035;-67
2023/05/27 11:16:07;;;;;;;11.45;3.50;;;26.80;34.90;;;;;;5076218;28;20414;-68
2023/05/27 11:18:40;;;;;;;10.00;3.78;;;26.90;35.60;;;;;;5079370;28;20028;-67
2023/05/27 11:21:08;;;;;;;12.38;3.78;;;26.90;35.20;;;;;;5077874;28;20065;-66
2023/05/27 11:23:48;;;;;;;9.68;3.72;;;27.00;35.40;;;;;;5078682;28;20048;-66
2023/05/27 11:26:15;;;;;;;10.30;3.38;;;27.00;34.50;;;;;;5075929;28;20091;-68
2023/05/27 11:28:51;;;;;;;11.55;3.53;;;27.00;35.50;;;;;;5078911;28;20063;-65
2023/05/27 11:31:19;;;;;;;7.97;2.95;;;27.10;33.10;;;;;;5071874;28;20044;-67
2023/05/27 11:33:49;;;;;;;7.75;3.50;;;27.10;35.20;;;;;;5077382;28;20454;-68
2023/05/27 11:36:16;;;;;;;6.32;3.15;;;27.20;34.30;;;;;;5073732;28;20033;-67
2023/05/27 11:38:51;;;;;;;10.48;3.47;;;27.20;34.60;;;;;;5077179;28;20025;-67
2023/05/27 11:41:22;;;;;;;9.57;3.45;;;27.20;32.40;;;;;;5076988;28;20044;-67
2023/05/27 11:43:59;;;;;;;15.57;3.60;;;27.30;33.00;;;;;;5071813;28;20025;-67
2023/05/27 11:46:46;;;;;;;16.20;4.38;;;27.40;33.00;;;;;;5073339;28;20058;-67
2023/05/27 11:49:14;;;;;;;17.73;5.25;;;27.40;31.80;;;;;;5076373;28;20021;-67
2023/05/27 11:51:42;;;;;;;24.65;6.32;;;27.50;33.70;;;;;;5075170;28;20040;-68
2023/05/27 11:54:25;;;;;;;7.35;3.20;;;27.50;33.10;;;;;;5076836;28;20035;-67
2023/05/27 11:56:52;;;;;;;9.60;3.72;;;27.50;32.30;;;;;;5077214;28;20119;-67
2023/05/27 11:59:18;;;;;;;10.27;4.43;;;27.60;33.40;;;;;;5077753;28;20044;-67
2023/05/27 12:01:44;;;;;;;13.73;3.65;;;27.60;33.50;;;;;;5072065;28;20024;-67
2023/05/27 12:04:11;;;;;;;10.35;3.45;;;27.60;34.00;;;;;;5077979;28;20063;-67
2023/05/27 12:06:40;;;;;;;6.47;3.13;;;27.70;34.20;;;;;;5077194;28;20071;-67
2023/05/27 12:09:10;;;;;;;10.23;3.33;;;27.70;33.80;;;;;;5079259;28;20108;-66
2023/05/27 12:11:37;;;;;;;6.60;3.25;;;27.80;33.70;;;;;;5075412;28;20024;-67
2023/05/27 12:14:03;;;;;;;8.50;3.42;;;27.90;33.60;;;;;;5076513;28;20025;-66
2023/05/27 12:16:29;;;;;;;6.78;2.83;;;27.90;33.80;;;;;;5069054;28;20463;-67
2023/05/27 12:18:55;;;;;;;10.80;3.40;;;28.00;33.90;;;;;;5074887;28;20031;-66
2023/05/27 12:21:21;;;;;;;7.93;3.28;;;28.10;33.40;;;;;;5072008;28;20092;-67
2023/05/27 12:23:47;;;;;;;7.50;3.10;;;28.10;33.90;;;;;;5072442;28;20056;-67
2023/05/27 12:26:14;;;;;;;6.40;2.92;;;28.20;33.60;;;;;;5066564;28;20033;-67
2023/05/27 12:28:42;;;;;;;10.98;2.78;;;28.20;32.70;;;;;;5073185;28;20068;-65
2023/05/27 12:31:07;;;;;;;10.50;2.92;;;28.20;32.40;;;;;;5069383;28;20028;-66
2023/05/27 12:33:34;;;;;;;6.95;3.20;;;28.20;32.10;;;;;;5069284;28;20063;-67
2023/05/27 12:36:00;;;;;;;9.20;3.13;;;28.20;31.80;;;;;;5068331;28;20024;-67
2023/05/27 12:38:26;;;;;;;8.32;3.15;;;28.20;32.50;;;;;;5070245;28;20017;-65
2023/05/27 12:40:52;;;;;;;11.18;2.92;;;28.20;32.40;;;;;;5073676;28;20562;-67